Ocean Spirit of Moray — MVXF5 — position and weather

sailwx.info

Track history (hours):
 
Tides and Currents Weather Stations Pressure Air Temp Water Temp Dewpoint Dewpoint Depression Visibility Wind Speed Wind Dir Waves Ship Positions

Ocean Spirit of Moray (United Kingdom)

Ship's website: http://www.gordonstoun.org.uk/

Last reported at 2017-Jun-21 14:11 UTC. Time now 2017-Jun-28 05:34 UTC.
Position N 59°01' W 002°53'.

Length 24 m; draft 3 m.

Type: Sailing vessel. MMSI: 232007590.

Date/timePositionNaut miles runAvg speedWind from/ knotsBaromVisibWave heightAir tempDewpointWater temp
2017-Jun-21 14:11N 59°01' W 002°53'4 6.2
2017-Jun-21 13:30N 59°03' W 002°46'2 4.5
2017-Jun-21 13:00N 59°05' W 002°47'2 3.7
2017-Jun-21 12:30N 59°06' W 002°50'2 3.0
2017-Jun-21 12:00N 59°07' W 002°52'2 4.1
2017-Jun-21 11:30N 59°09' W 002°53'2 3.0
2017-Jun-21 11:00N 59°11' W 002°53'1 2.7
2017-Jun-21 10:30N 59°11' W 002°55'23 6.5
2017-Jun-21 06:57N 59°09' W 003°40'125 6.0
2017-Jun-20 10:16N 57°26' W 005°53'2 7.2
2017-Jun-20 10:00N 57°24' W 005°53'4 7.1
2017-Jun-20 09:30N 57°20' W 005°52'3 6.1
2017-Jun-20 09:00N 57°20' W 005°46'3 6.6
2017-Jun-20 08:30N 57°21' W 005°41'1 0.6
2017-Jun-20 06:11N 57°21' W 005°38'0 0.0
2017-Jun-20 05:59N 57°21' W 005°38'0 0.0
2017-Jun-20 05:14N 57°21' W 005°38'0 0.0
2017-Jun-20 04:44N 57°21' W 005°38'0 0.0
2017-Jun-20 04:29N 57°21' W 005°38'0 0.0
2017-Jun-20 03:56N 57°21' W 005°38'0 0.0
2017-Jun-20 02:38N 57°21' W 005°38'0 0.0
2017-Jun-20 02:14N 57°21' W 005°38'0 0.0
2017-Jun-20 01:47N 57°21' W 005°38'0 0.0
2017-Jun-20 01:14N 57°21' W 005°38'0 0.0
2017-Jun-20 00:59N 57°21' W 005°38'0 0.0
2017-Jun-20 00:29N 57°21' W 005°38'0 0.0
2017-Jun-19 23:56N 57°21' W 005°38'0 0.0
2017-Jun-19 23:29N 57°21' W 005°38'0 0.0
2017-Jun-19 22:53N 57°21' W 005°38'0 0.0
2017-Jun-19 22:02N 57°21' W 005°38'0 0.0
2017-Jun-19 21:56N 57°21' W 005°38'0 0.0
2017-Jun-19 21:29N 57°21' W 005°38'0 0.0
2017-Jun-19 20:47N 57°21' W 005°38'0 0.0
2017-Jun-19 19:44N 57°21' W 005°38'0 0.0
2017-Jun-19 19:19N 57°21' W 005°38'0 0.0
2017-Jun-19 18:59N 57°21' W 005°38'0 0.0
2017-Jun-19 18:30N 57°21' W 005°38'0 0.0
2017-Jun-19 17:58N 57°21' W 005°38'0 0.0
2017-Jun-19 17:30N 57°21' W 005°38'0 0.0
2017-Jun-19 17:00N 57°21' W 005°38'0 0.0
2017-Jun-19 16:28N 57°21' W 005°38'0 0.0
2017-Jun-19 15:58N 57°21' W 005°38'0 0.0
2017-Jun-19 15:29N 57°21' W 005°38'0 0.0
2017-Jun-19 14:59N 57°21' W 005°38'0 0.0
2017-Jun-19 14:30N 57°21' W 005°38'0 0.0
2017-Jun-19 13:30N 57°21' W 005°38'0 0.0
2017-Jun-19 12:49N 57°21' W 005°38'0 0.0
2017-Jun-19 12:29N 57°21' W 005°38'0 0.0
2017-Jun-19 11:57N 57°21' W 005°38'0 0.0
2017-Jun-19 11:28N 57°21' W 005°38'0 0.0
2017-Jun-19 10:59N 57°21' W 005°38'0 0.0
2017-Jun-19 10:29N 57°21' W 005°38'0 0.0
2017-Jun-19 09:58N 57°21' W 005°38'0 0.0
2017-Jun-19 09:29N 57°21' W 005°38'0 0.0
2017-Jun-19 08:58N 57°21' W 005°38'0 0.0
2017-Jun-19 08:29N 57°21' W 005°38'0 0.0
2017-Jun-19 07:59N 57°21' W 005°38'0 0.0
2017-Jun-19 07:29N 57°21' W 005°38'0 0.0
2017-Jun-19 07:00N 57°21' W 005°38'0 0.0
2017-Jun-19 06:30N 57°21' W 005°38'0 0.0
2017-Jun-19 06:00N 57°21' W 005°38'0 0.0
2017-Jun-19 05:30N 57°21' W 005°38'0 0.0
2017-Jun-19 04:59N 57°21' W 005°38'0 0.0
2017-Jun-19 04:30N 57°21' W 005°38'0 0.0
2017-Jun-19 04:00N 57°21' W 005°38'0 0.0
2017-Jun-19 03:28N 57°21' W 005°38'0 0.0
2017-Jun-19 02:57N 57°21' W 005°38'0 0.0
2017-Jun-19 02:28N 57°21' W 005°38'0 0.0
2017-Jun-19 01:59N 57°21' W 005°38'0 0.0
2017-Jun-19 01:30N 57°21' W 005°38'0 0.0
2017-Jun-19 01:00N 57°21' W 005°38'0 0.0
2017-Jun-19 00:28N 57°21' W 005°38'0 0.0
2017-Jun-18 23:57N 57°21' W 005°38'0 0.0
2017-Jun-18 23:30N 57°21' W 005°38'0 0.0
2017-Jun-18 22:59N 57°21' W 005°38'0 0.0
2017-Jun-18 22:30N 57°21' W 005°38'0 0.0
2017-Jun-18 22:00N 57°21' W 005°38'0 0.0
2017-Jun-18 21:29N 57°21' W 005°38'0 0.0
2017-Jun-18 20:57N 57°21' W 005°38'0 0.0
2017-Jun-18 20:30N 57°21' W 005°38'0 0.0
2017-Jun-18 19:59N 57°21' W 005°38'0 0.0
2017-Jun-18 19:30N 57°21' W 005°38'0 0.0
2017-Jun-18 18:59N 57°21' W 005°38'0 0.0
2017-Jun-18 18:28N 57°21' W 005°38'0 0.0
2017-Jun-18 18:00N 57°21' W 005°38'0 0.0
2017-Jun-18 17:28N 57°21' W 005°38'0 0.0
2017-Jun-18 17:00N 57°21' W 005°38'0 0.0
2017-Jun-18 16:29N 57°21' W 005°38'0 0.0
2017-Jun-18 15:59N 57°21' W 005°38'0 0.0
2017-Jun-18 15:29N 57°21' W 005°38'0 0.0
2017-Jun-18 14:59N 57°21' W 005°38'4 4.0
2017-Jun-18 14:00N 57°21' W 005°46'3 6.0
2017-Jun-18 13:30N 57°22' W 005°51'4 5.7
2017-Jun-18 12:48N 57°25' W 005°54'2 6.3
2017-Jun-18 12:30N 57°25' W 005°51'  
2017-Jun-14 11:42N 57°15' W 005°38'1 4.5
2017-Jun-14 11:29N 57°16' W 005°39'2 4.5
2017-Jun-14 11:00N 57°17' W 005°43'4 7.7
2017-Jun-14 10:30N 57°18' W 005°50'3 5.7
2017-Jun-14 10:00N 57°20' W 005°45'3 6.0
2017-Jun-14 09:30N 57°21' W 005°41'1 0.6
2017-Jun-14 07:24N 57°21' W 005°38'0 0.0
2017-Jun-14 06:57N 57°21' W 005°38'0 0.0
2017-Jun-14 06:24N 57°21' W 005°38'0 0.0
2017-Jun-14 05:43N 57°21' W 005°38'0 0.0
2017-Jun-14 05:24N 57°21' W 005°38'0 0.1
2017-Jun-14 04:57N 57°21' W 005°38'0 0.0
2017-Jun-14 04:27N 57°21' W 005°38'0 0.0
2017-Jun-14 03:33N 57°21' W 005°38'0 0.0
2017-Jun-14 03:27N 57°21' W 005°38'0 0.0
2017-Jun-14 02:45N 57°21' W 005°38'0 0.1
2017-Jun-14 02:30N 57°21' W 005°38'0 0.0
2017-Jun-14 02:00N 57°21' W 005°38'0 0.0
2017-Jun-14 01:28N 57°21' W 005°38'0 0.0
2017-Jun-14 01:00N 57°21' W 005°38'0 0.0
2017-Jun-14 00:30N 57°21' W 005°38'0 0.0
2017-Jun-14 00:00N 57°21' W 005°38'0 0.0
2017-Jun-13 23:30N 57°21' W 005°38'0 0.0
2017-Jun-13 23:00N 57°21' W 005°38'0 0.0
2017-Jun-13 22:30N 57°21' W 005°38'0 0.0
2017-Jun-13 22:00N 57°21' W 005°38'0 0.0
2017-Jun-13 21:24N 57°21' W 005°38'0 0.0
2017-Jun-13 20:54N 57°21' W 005°38'0 0.0
2017-Jun-13 20:28N 57°21' W 005°38'0 0.0
2017-Jun-13 20:00N 57°21' W 005°38'0 0.0
2017-Jun-13 19:30N 57°21' W 005°38'0 0.0
2017-Jun-13 18:57N 57°21' W 005°38'0 0.0
2017-Jun-13 18:30N 57°21' W 005°38'0 0.0
2017-Jun-13 18:00N 57°21' W 005°38'0 0.0
2017-Jun-13 17:30N 57°21' W 005°38'0 0.0
2017-Jun-13 16:58N 57°21' W 005°38'0 0.0
2017-Jun-13 16:30N 57°21' W 005°38'0 0.0
2017-Jun-13 15:54N 57°21' W 005°38'0 0.0
2017-Jun-13 15:21N 57°21' W 005°38'0 0.0
2017-Jun-13 15:00N 57°21' W 005°38'0 0.0
2017-Jun-13 14:30N 57°21' W 005°38'0 0.0
2017-Jun-13 13:30N 57°21' W 005°38'0 0.0
2017-Jun-13 13:00N 57°21' W 005°38'0 0.0
2017-Jun-13 11:28N 57°21' W 005°38'0 0.0
2017-Jun-13 10:54N 57°21' W 005°38'0 0.0
2017-Jun-13 10:27N 57°21' W 005°38'0 0.0
2017-Jun-13 09:54N 57°21' W 005°38'0 0.0
2017-Jun-13 09:28N 57°21' W 005°38'0 0.0
2017-Jun-13 08:51N 57°21' W 005°38'0 0.0
2017-Jun-13 08:21N 57°21' W 005°38'0 0.0
2017-Jun-13 08:00N 57°21' W 005°38'0 0.0
2017-Jun-13 07:25N 57°21' W 005°38'0 0.0
2017-Jun-13 06:52N 57°21' W 005°38'0 0.0
2017-Jun-13 06:25N 57°21' W 005°38'0 0.0
2017-Jun-13 06:00N 57°21' W 005°38'0 0.0
2017-Jun-13 05:30N 57°21' W 005°38'0 0.0
2017-Jun-13 04:58N 57°21' W 005°38'0 0.0
2017-Jun-13 04:21N 57°21' W 005°38'0 0.0
2017-Jun-13 04:00N 57°21' W 005°38'0 0.0
2017-Jun-13 03:24N 57°21' W 005°38'0 0.0
2017-Jun-13 02:57N 57°21' W 005°38'0 0.0
2017-Jun-13 02:30N 57°21' W 005°38'0 0.0
2017-Jun-13 02:00N 57°21' W 005°38'0 0.0
2017-Jun-13 01:30N 57°21' W 005°38'0 0.0
2017-Jun-13 01:00N 57°21' W 005°38'0 0.0
2017-Jun-13 00:27N 57°21' W 005°38'0 0.0
2017-Jun-12 23:54N 57°21' W 005°38'0 0.0
2017-Jun-12 23:30N 57°21' W 005°38'0 0.0
2017-Jun-12 23:00N 57°21' W 005°38'0 0.0
2017-Jun-12 20:30N 57°21' W 005°38'0 0.0
2017-Jun-12 19:33N 57°21' W 005°38'0 0.1
2017-Jun-12 19:30N 57°21' W 005°38'0 0.0
2017-Jun-12 18:54N 57°21' W 005°38'0 0.0
2017-Jun-12 18:27N 57°21' W 005°38'0 0.0
2017-Jun-12 16:45N 57°21' W 005°38'0 0.0
2017-Jun-12 16:09N 57°21' W 005°38'0 0.0
2017-Jun-12 15:54N 57°21' W 005°38'0 0.0
2017-Jun-12 15:21N 57°21' W 005°38'0 0.0
2017-Jun-12 14:51N 57°21' W 005°38'0 0.6
2017-Jun-12 14:30N 57°21' W 005°38'5 5.0
2017-Jun-12 13:30N 57°20' W 005°48'3 5.8
2017-Jun-12 13:00N 57°22' W 005°51'3 1.3
2017-Jun-12 10:39N 57°25' W 005°54'1 7.1
2017-Jun-12 10:27N 57°24' W 005°54'4 8.2
2017-Jun-12 10:00N 57°20' W 005°52'2 4.8
2017-Jun-12 09:29N 57°19' W 005°49'3 5.4
2017-Jun-12 09:01N 57°17' W 005°45'1 2.7
2017-Jun-12 08:29N 57°16' W 005°44'0 0.0
2017-Jun-12 07:59N 57°16' W 005°44'0 0.0
2017-Jun-12 07:08N 57°16' W 005°44'0 0.0
2017-Jun-12 06:59N 57°16' W 005°44'0 0.0
2017-Jun-12 06:29N 57°16' W 005°44'0 0.0
2017-Jun-12 06:00N 57°16' W 005°44'0 0.0
2017-Jun-12 05:29N 57°16' W 005°44'0 0.0
2017-Jun-12 04:29N 57°16' W 005°44'0 0.0
2017-Jun-12 03:59N 57°16' W 005°44'0 0.0
2017-Jun-12 03:26N 57°16' W 005°44'0 0.0
2017-Jun-12 02:49N 57°16' W 005°44'0 0.0
2017-Jun-12 02:28N 57°16' W 005°44'0 0.0
2017-Jun-12 01:56N 57°16' W 005°44'0 0.0
2017-Jun-12 01:29N 57°16' W 005°44'0 0.0
2017-Jun-12 00:59N 57°16' W 005°44'0 0.0
2017-Jun-12 00:29N 57°16' W 005°44'0 0.0
2017-Jun-11 23:59N 57°16' W 005°44'0 0.0
2017-Jun-11 23:29N 57°16' W 005°44'0 0.0
2017-Jun-11 22:59N 57°16' W 005°44'0 0.0
2017-Jun-11 22:26N 57°16' W 005°44'0 0.0
2017-Jun-11 21:57N 57°16' W 005°44'0 0.0
2017-Jun-11 21:22N 57°16' W 005°44'0 0.0
2017-Jun-11 20:55N 57°16' W 005°44'0 0.0
2017-Jun-11 20:29N 57°16' W 005°44'0 0.0
2017-Jun-11 19:59N 57°16' W 005°44'0 0.0
2017-Jun-11 19:30N 57°16' W 005°44'0 0.0
2017-Jun-11 18:59N 57°16' W 005°44'0 0.0
2017-Jun-11 18:29N 57°16' W 005°44'0 0.0
2017-Jun-11 17:58N 57°16' W 005°44'0 0.0
2017-Jun-11 17:28N 57°16' W 005°44'1 2.4
2017-Jun-11 17:00N 57°16' W 005°42'  
Track history (hours):
 
Tides and Currents Weather Stations Pressure Air Temp Water Temp Dewpoint Dewpoint Depression Visibility Wind Speed Wind Dir Waves Ship Positions

Ocean Spirit of Moray (United Kingdom)

Ship's website: http://www.gordonstoun.org.uk/

Last reported at 2017-Jun-21 14:11 UTC. Time now 2017-Jun-28 05:34 UTC.
Position N 59°01' W 002°53'.

Length 24 m; draft 3 m.

Type: Sailing vessel. MMSI: 232007590.

Date/timePositionNaut miles runAvg speedWind from/ knotsBaromVisibWave heightAir tempDewpointWater temp
2017-Jun-21 14:11N 59°01' W 002°53'4 6.2
2017-Jun-21 13:30N 59°03' W 002°46'2 4.5
2017-Jun-21 13:00N 59°05' W 002°47'2 3.7
2017-Jun-21 12:30N 59°06' W 002°50'2 3.0
2017-Jun-21 12:00N 59°07' W 002°52'2 4.1
2017-Jun-21 11:30N 59°09' W 002°53'2 3.0
2017-Jun-21 11:00N 59°11' W 002°53'1 2.7
2017-Jun-21 10:30N 59°11' W 002°55'23 6.5
2017-Jun-21 06:57N 59°09' W 003°40'125 6.0
2017-Jun-20 10:16N 57°26' W 005°53'2 7.2
2017-Jun-20 10:00N 57°24' W 005°53'4 7.1
2017-Jun-20 09:30N 57°20' W 005°52'3 6.1
2017-Jun-20 09:00N 57°20' W 005°46'3 6.6
2017-Jun-20 08:30N 57°21' W 005°41'1 0.6
2017-Jun-20 06:11N 57°21' W 005°38'0 0.0
2017-Jun-20 05:59N 57°21' W 005°38'0 0.0
2017-Jun-20 05:14N 57°21' W 005°38'0 0.0
2017-Jun-20 04:44N 57°21' W 005°38'0 0.0
2017-Jun-20 04:29N 57°21' W 005°38'0 0.0
2017-Jun-20 03:56N 57°21' W 005°38'0 0.0
2017-Jun-20 02:38N 57°21' W 005°38'0 0.0
2017-Jun-20 02:14N 57°21' W 005°38'0 0.0
2017-Jun-20 01:47N 57°21' W 005°38'0 0.0
2017-Jun-20 01:14N 57°21' W 005°38'0 0.0
2017-Jun-20 00:59N 57°21' W 005°38'0 0.0
2017-Jun-20 00:29N 57°21' W 005°38'0 0.0
2017-Jun-19 23:56N 57°21' W 005°38'0 0.0
2017-Jun-19 23:29N 57°21' W 005°38'0 0.0
2017-Jun-19 22:53N 57°21' W 005°38'0 0.0
2017-Jun-19 22:02N 57°21' W 005°38'0 0.0
2017-Jun-19 21:56N 57°21' W 005°38'0 0.0
2017-Jun-19 21:29N 57°21' W 005°38'0 0.0
2017-Jun-19 20:47N 57°21' W 005°38'0 0.0
2017-Jun-19 19:44N 57°21' W 005°38'0 0.0
2017-Jun-19 19:19N 57°21' W 005°38'0 0.0
2017-Jun-19 18:59N 57°21' W 005°38'0 0.0
2017-Jun-19 18:30N 57°21' W 005°38'0 0.0
2017-Jun-19 17:58N 57°21' W 005°38'0 0.0
2017-Jun-19 17:30N 57°21' W 005°38'0 0.0
2017-Jun-19 17:00N 57°21' W 005°38'0 0.0
2017-Jun-19 16:28N 57°21' W 005°38'0 0.0
2017-Jun-19 15:58N 57°21' W 005°38'0 0.0
2017-Jun-19 15:29N 57°21' W 005°38'0 0.0
2017-Jun-19 14:59N 57°21' W 005°38'0 0.0
2017-Jun-19 14:30N 57°21' W 005°38'0 0.0
2017-Jun-19 13:30N 57°21' W 005°38'0 0.0
2017-Jun-19 12:49N 57°21' W 005°38'0 0.0
2017-Jun-19 12:29N 57°21' W 005°38'0 0.0
2017-Jun-19 11:57N 57°21' W 005°38'0 0.0
2017-Jun-19 11:28N 57°21' W 005°38'0 0.0
2017-Jun-19 10:59N 57°21' W 005°38'0 0.0
2017-Jun-19 10:29N 57°21' W 005°38'0 0.0
2017-Jun-19 09:58N 57°21' W 005°38'0 0.0
2017-Jun-19 09:29N 57°21' W 005°38'0 0.0
2017-Jun-19 08:58N 57°21' W 005°38'0 0.0
2017-Jun-19 08:29N 57°21' W 005°38'0 0.0
2017-Jun-19 07:59N 57°21' W 005°38'0 0.0
2017-Jun-19 07:29N 57°21' W 005°38'0 0.0
2017-Jun-19 07:00N 57°21' W 005°38'0 0.0
2017-Jun-19 06:30N 57°21' W 005°38'0 0.0
2017-Jun-19 06:00N 57°21' W 005°38'0 0.0
2017-Jun-19 05:30N 57°21' W 005°38'0 0.0
2017-Jun-19 04:59N 57°21' W 005°38'0 0.0
2017-Jun-19 04:30N 57°21' W 005°38'0 0.0
2017-Jun-19 04:00N 57°21' W 005°38'0 0.0
2017-Jun-19 03:28N 57°21' W 005°38'0 0.0
2017-Jun-19 02:57N 57°21' W 005°38'0 0.0
2017-Jun-19 02:28N 57°21' W 005°38'0 0.0
2017-Jun-19 01:59N 57°21' W 005°38'0 0.0
2017-Jun-19 01:30N 57°21' W 005°38'0 0.0
2017-Jun-19 01:00N 57°21' W 005°38'0 0.0
2017-Jun-19 00:28N 57°21' W 005°38'0 0.0
2017-Jun-18 23:57N 57°21' W 005°38'0 0.0
2017-Jun-18 23:30N 57°21' W 005°38'0 0.0
2017-Jun-18 22:59N 57°21' W 005°38'0 0.0
2017-Jun-18 22:30N 57°21' W 005°38'0 0.0
2017-Jun-18 22:00N 57°21' W 005°38'0 0.0
2017-Jun-18 21:29N 57°21' W 005°38'0 0.0
2017-Jun-18 20:57N 57°21' W 005°38'0 0.0
2017-Jun-18 20:30N 57°21' W 005°38'0 0.0
2017-Jun-18 19:59N 57°21' W 005°38'0 0.0
2017-Jun-18 19:30N 57°21' W 005°38'0 0.0
2017-Jun-18 18:59N 57°21' W 005°38'0 0.0
2017-Jun-18 18:28N 57°21' W 005°38'0 0.0
2017-Jun-18 18:00N 57°21' W 005°38'0 0.0
2017-Jun-18 17:28N 57°21' W 005°38'0 0.0
2017-Jun-18 17:00N 57°21' W 005°38'0 0.0
2017-Jun-18 16:29N 57°21' W 005°38'0 0.0
2017-Jun-18 15:59N 57°21' W 005°38'0 0.0
2017-Jun-18 15:29N 57°21' W 005°38'0 0.0
2017-Jun-18 14:59N 57°21' W 005°38'4 4.0
2017-Jun-18 14:00N 57°21' W 005°46'3 6.0
2017-Jun-18 13:30N 57°22' W 005°51'4 5.7
2017-Jun-18 12:48N 57°25' W 005°54'2 6.3
2017-Jun-18 12:30N 57°25' W 005°51'  
2017-Jun-14 11:42N 57°15' W 005°38'1 4.5
2017-Jun-14 11:29N 57°16' W 005°39'2 4.5
2017-Jun-14 11:00N 57°17' W 005°43'4 7.7
2017-Jun-14 10:30N 57°18' W 005°50'3 5.7
2017-Jun-14 10:00N 57°20' W 005°45'3 6.0
2017-Jun-14 09:30N 57°21' W 005°41'1 0.6
2017-Jun-14 07:24N 57°21' W 005°38'0 0.0
2017-Jun-14 06:57N 57°21' W 005°38'0 0.0
2017-Jun-14 06:24N 57°21' W 005°38'0 0.0
2017-Jun-14 05:43N 57°21' W 005°38'0 0.0
2017-Jun-14 05:24N 57°21' W 005°38'0 0.1
2017-Jun-14 04:57N 57°21' W 005°38'0 0.0
2017-Jun-14 04:27N 57°21' W 005°38'0 0.0
2017-Jun-14 03:33N 57°21' W 005°38'0 0.0
2017-Jun-14 03:27N 57°21' W 005°38'0 0.0
2017-Jun-14 02:45N 57°21' W 005°38'0 0.1
2017-Jun-14 02:30N 57°21' W 005°38'0 0.0
2017-Jun-14 02:00N 57°21' W 005°38'0 0.0
2017-Jun-14 01:28N 57°21' W 005°38'0 0.0
2017-Jun-14 01:00N 57°21' W 005°38'0 0.0
2017-Jun-14 00:30N 57°21' W 005°38'0 0.0
2017-Jun-14 00:00N 57°21' W 005°38'0 0.0
2017-Jun-13 23:30N 57°21' W 005°38'0 0.0
2017-Jun-13 23:00N 57°21' W 005°38'0 0.0
2017-Jun-13 22:30N 57°21' W 005°38'0 0.0
2017-Jun-13 22:00N 57°21' W 005°38'0 0.0
2017-Jun-13 21:24N 57°21' W 005°38'0 0.0
2017-Jun-13 20:54N 57°21' W 005°38'0 0.0
2017-Jun-13 20:28N 57°21' W 005°38'0 0.0
2017-Jun-13 20:00N 57°21' W 005°38'0 0.0
2017-Jun-13 19:30N 57°21' W 005°38'0 0.0
2017-Jun-13 18:57N 57°21' W 005°38'0 0.0
2017-Jun-13 18:30N 57°21' W 005°38'0 0.0
2017-Jun-13 18:00N 57°21' W 005°38'0 0.0
2017-Jun-13 17:30N 57°21' W 005°38'0 0.0
2017-Jun-13 16:58N 57°21' W 005°38'0 0.0
2017-Jun-13 16:30N 57°21' W 005°38'0 0.0
2017-Jun-13 15:54N 57°21' W 005°38'0 0.0
2017-Jun-13 15:21N 57°21' W 005°38'0 0.0
2017-Jun-13 15:00N 57°21' W 005°38'0 0.0
2017-Jun-13 14:30N 57°21' W 005°38'0 0.0
2017-Jun-13 13:30N 57°21' W 005°38'0 0.0
2017-Jun-13 13:00N 57°21' W 005°38'0 0.0
2017-Jun-13 11:28N 57°21' W 005°38'0 0.0
2017-Jun-13 10:54N 57°21' W 005°38'0 0.0
2017-Jun-13 10:27N 57°21' W 005°38'0 0.0
2017-Jun-13 09:54N 57°21' W 005°38'0 0.0
2017-Jun-13 09:28N 57°21' W 005°38'0 0.0
2017-Jun-13 08:51N 57°21' W 005°38'0 0.0
2017-Jun-13 08:21N 57°21' W 005°38'0 0.0
2017-Jun-13 08:00N 57°21' W 005°38'0 0.0
2017-Jun-13 07:25N 57°21' W 005°38'0 0.0
2017-Jun-13 06:52N 57°21' W 005°38'0 0.0
2017-Jun-13 06:25N 57°21' W 005°38'0 0.0
2017-Jun-13 06:00N 57°21' W 005°38'0 0.0
2017-Jun-13 05:30N 57°21' W 005°38'0 0.0
2017-Jun-13 04:58N 57°21' W 005°38'0 0.0
2017-Jun-13 04:21N 57°21' W 005°38'0 0.0
2017-Jun-13 04:00N 57°21' W 005°38'0 0.0
2017-Jun-13 03:24N 57°21' W 005°38'0 0.0
2017-Jun-13 02:57N 57°21' W 005°38'0 0.0
2017-Jun-13 02:30N 57°21' W 005°38'0 0.0
2017-Jun-13 02:00N 57°21' W 005°38'0 0.0
2017-Jun-13 01:30N 57°21' W 005°38'0 0.0
2017-Jun-13 01:00N 57°21' W 005°38'0 0.0
2017-Jun-13 00:27N 57°21' W 005°38'0 0.0
2017-Jun-12 23:54N 57°21' W 005°38'0 0.0
2017-Jun-12 23:30N 57°21' W 005°38'0 0.0
2017-Jun-12 23:00N 57°21' W 005°38'0 0.0
2017-Jun-12 20:30N 57°21' W 005°38'0 0.0
2017-Jun-12 19:33N 57°21' W 005°38'0 0.1
2017-Jun-12 19:30N 57°21' W 005°38'0 0.0
2017-Jun-12 18:54N 57°21' W 005°38'0 0.0
2017-Jun-12 18:27N 57°21' W 005°38'0 0.0
2017-Jun-12 16:45N 57°21' W 005°38'0 0.0
2017-Jun-12 16:09N 57°21' W 005°38'0 0.0
2017-Jun-12 15:54N 57°21' W 005°38'0 0.0
2017-Jun-12 15:21N 57°21' W 005°38'0 0.0
2017-Jun-12 14:51N 57°21' W 005°38'0 0.6
2017-Jun-12 14:30N 57°21' W 005°38'5 5.0
2017-Jun-12 13:30N 57°20' W 005°48'3 5.8
2017-Jun-12 13:00N 57°22' W 005°51'3 1.3
2017-Jun-12 10:39N 57°25' W 005°54'1 7.1
2017-Jun-12 10:27N 57°24' W 005°54'4 8.2
2017-Jun-12 10:00N 57°20' W 005°52'2 4.8
2017-Jun-12 09:29N 57°19' W 005°49'3 5.4
2017-Jun-12 09:01N 57°17' W 005°45'1 2.7
2017-Jun-12 08:29N 57°16' W 005°44'0 0.0
2017-Jun-12 07:59N 57°16' W 005°44'0 0.0
2017-Jun-12 07:08N 57°16' W 005°44'0 0.0
2017-Jun-12 06:59N 57°16' W 005°44'0 0.0
2017-Jun-12 06:29N 57°16' W 005°44'0 0.0
2017-Jun-12 06:00N 57°16' W 005°44'0 0.0
2017-Jun-12 05:29N 57°16' W 005°44'0 0.0
2017-Jun-12 04:29N 57°16' W 005°44'0 0.0
2017-Jun-12 03:59N 57°16' W 005°44'0 0.0
2017-Jun-12 03:26N 57°16' W 005°44'0 0.0
2017-Jun-12 02:49N 57°16' W 005°44'0 0.0
2017-Jun-12 02:28N 57°16' W 005°44'0 0.0
2017-Jun-12 01:56N 57°16' W 005°44'0 0.0
2017-Jun-12 01:29N 57°16' W 005°44'0 0.0
2017-Jun-12 00:59N 57°16' W 005°44'0 0.0
2017-Jun-12 00:29N 57°16' W 005°44'0 0.0
2017-Jun-11 23:59N 57°16' W 005°44'0 0.0
2017-Jun-11 23:29N 57°16' W 005°44'0 0.0
2017-Jun-11 22:59N 57°16' W 005°44'0 0.0
2017-Jun-11 22:26N 57°16' W 005°44'0 0.0
2017-Jun-11 21:57N 57°16' W 005°44'0 0.0
2017-Jun-11 21:22N 57°16' W 005°44'0 0.0
2017-Jun-11 20:55N 57°16' W 005°44'0 0.0
2017-Jun-11 20:29N 57°16' W 005°44'0 0.0
2017-Jun-11 19:59N 57°16' W 005°44'0 0.0
2017-Jun-11 19:30N 57°16' W 005°44'0 0.0
2017-Jun-11 18:59N 57°16' W 005°44'0 0.0
2017-Jun-11 18:29N 57°16' W 005°44'0 0.0
2017-Jun-11 17:58N 57°16' W 005°44'0 0.0
2017-Jun-11 17:28N 57°16' W 005°44'1 2.4
2017-Jun-11 17:00N 57°16' W 005°42'  

Dump ship's entire track history